createdAt,value
2023-04-18T00:00:01.116Z,18.90
2023-04-18T00:02:33.646Z,18.73
2023-04-18T00:05:05.751Z,18.55
2023-04-18T00:07:37.227Z,18.23
2023-04-18T00:10:10.155Z,17.92
2023-04-18T00:12:41.295Z,18.73
2023-04-18T00:15:15.481Z,17.50
2023-04-18T00:17:46.276Z,18.40
2023-04-18T00:20:17.370Z,14.60
2023-04-18T00:22:48.218Z,18.88
2023-04-18T00:25:19.320Z,18.27
2023-04-18T00:27:50.050Z,16.85
2023-04-18T00:30:24.516Z,17.98
2023-04-18T00:32:55.445Z,17.00
2023-04-18T00:35:26.756Z,16.23
2023-04-18T00:37:57.585Z,16.38
2023-04-18T00:40:28.563Z,16.90
2023-04-18T00:42:59.545Z,16.30
2023-04-18T00:45:33.075Z,9.88
2023-04-18T00:48:03.973Z,17.58
2023-04-18T00:50:35.264Z,18.45
2023-04-18T00:53:06.286Z,18.75
2023-04-18T00:55:38.201Z,20.35
2023-04-18T00:58:09.322Z,20.30
2023-04-18T01:00:43.025Z,19.73
2023-04-18T01:03:18.650Z,17.98
2023-04-18T01:05:50.349Z,20.75
2023-04-18T01:08:22.023Z,18.48
2023-04-18T01:10:53.489Z,20.80
2023-04-18T01:13:24.573Z,21.08
2023-04-18T01:15:59.323Z,21.92
2023-04-18T01:18:31.805Z,21.88
2023-04-18T01:21:02.890Z,21.00
2023-04-18T01:23:33.849Z,21.75
2023-04-18T01:26:07.349Z,22.80
2023-04-18T01:28:40.268Z,17.13
2023-04-18T01:31:11.978Z,19.40
2023-04-18T01:33:42.743Z,13.98
2023-04-18T01:36:13.526Z,15.55
2023-04-18T01:38:44.425Z,15.40
2023-04-18T01:41:17.835Z,21.95
2023-04-18T01:43:49.484Z,19.27
2023-04-18T01:46:20.649Z,18.17
2023-04-18T01:48:51.490Z,18.45
2023-04-18T01:51:24.669Z,20.42
2023-04-18T01:53:57.615Z,14.52
2023-04-18T01:56:31.352Z,22.67
2023-04-18T01:59:03.751Z,22.65
2023-04-18T02:01:34.601Z,21.45
2023-04-18T02:04:05.607Z,21.15
2023-04-18T02:06:36.471Z,24.27
2023-04-18T02:09:07.352Z,26.38
2023-04-18T02:11:40.775Z,25.70
2023-04-18T02:14:11.942Z,24.98
2023-04-18T02:16:43.184Z,25.02
2023-04-18T02:19:14.121Z,26.88
2023-04-18T02:21:46.800Z,26.58
2023-04-18T02:24:18.669Z,25.95
2023-04-18T02:26:52.255Z,25.98
2023-04-18T02:29:23.086Z,25.88
2023-04-18T02:31:53.956Z,18.05
2023-04-18T02:34:24.983Z,24.77
2023-04-18T02:36:56.001Z,26.15
2023-04-18T02:39:26.877Z,23.27
2023-04-18T02:42:00.476Z,26.88
2023-04-18T02:44:31.312Z,20.88
2023-04-18T02:47:02.171Z,27.35
2023-04-18T02:49:33.802Z,26.73
2023-04-18T02:52:05.027Z,25.02
2023-04-18T02:54:35.833Z,26.40
2023-04-18T02:57:16.706Z,26.40
2023-04-18T02:59:59.199Z,27.67
2023-04-18T03:02:48.395Z,27.95
2023-04-18T03:05:46.160Z,29.20
2023-04-18T03:08:17.014Z,28.90
2023-04-18T03:10:49.112Z,27.35
2023-04-18T03:13:25.244Z,30.38
2023-04-18T03:15:56.384Z,29.90
2023-04-18T03:18:28.383Z,29.88
2023-04-18T03:21:02.068Z,29.15
2023-04-18T03:23:35.056Z,29.13
2023-04-18T03:26:09.389Z,28.75
2023-04-18T03:28:45.455Z,28.40
2023-04-18T03:31:16.487Z,30.30
2023-04-18T03:33:49.449Z,24.77
2023-04-18T03:36:25.530Z,29.77
2023-04-18T03:38:58.563Z,27.75
2023-04-18T03:41:30.352Z,22.42
2023-04-18T03:44:04.271Z,30.17
2023-04-18T03:46:39.463Z,21.55
2023-04-18T03:49:12.103Z,30.15
2023-04-18T03:51:48.089Z,29.80
2023-04-18T03:54:19.560Z,29.60
2023-04-18T03:56:50.443Z,29.55
2023-04-18T03:59:24.866Z,31.30
2023-04-18T04:01:56.200Z,33.60
2023-04-18T04:04:27.171Z,33.72
2023-04-18T04:06:58.421Z,29.10
2023-04-18T04:09:29.438Z,31.42
2023-04-18T04:12:00.300Z,32.45
2023-04-18T04:14:34.301Z,25.63
2023-04-18T04:17:05.110Z,34.42
2023-04-18T04:19:37.013Z,27.60
2023-04-18T04:22:17.810Z,34.00
2023-04-18T04:24:49.119Z,34.35
2023-04-18T04:27:27.302Z,31.58
2023-04-18T04:30:02.871Z,34.13
2023-04-18T04:32:33.886Z,32.30
2023-04-18T04:35:04.998Z,31.63
2023-04-18T04:37:36.562Z,30.67
2023-04-18T04:40:21.023Z,30.92
2023-04-18T04:43:00.051Z,31.20
2023-04-18T04:45:39.924Z,32.50
2023-04-18T04:48:11.427Z,20.10
2023-04-18T04:50:45.589Z,26.30
2023-04-18T04:53:16.422Z,25.52
2023-04-18T04:55:47.793Z,33.10
2023-04-18T04:58:21.198Z,32.17
2023-04-18T05:01:23.520Z,23.27
2023-04-18T05:03:54.330Z,34.55
2023-04-18T05:06:24.646Z,28.35
2023-04-18T05:08:56.141Z,29.58
2023-04-18T05:11:26.817Z,29.85
2023-04-18T05:13:57.311Z,27.73
2023-04-18T05:16:30.686Z,32.00
2023-04-18T05:19:01.229Z,24.30
2023-04-18T05:21:31.551Z,35.42
2023-04-18T05:24:01.924Z,35.05
2023-04-18T05:26:32.511Z,32.53
2023-04-18T05:29:03.276Z,27.30
2023-04-18T05:31:36.412Z,32.17
2023-04-18T05:34:06.906Z,34.85
2023-04-18T05:36:37.230Z,35.30
2023-04-18T05:39:07.625Z,35.60
2023-04-18T05:41:37.922Z,31.77
2023-04-18T05:44:08.745Z,30.63
2023-04-18T05:46:41.950Z,35.17
2023-04-18T05:49:12.390Z,35.70
2023-04-18T05:51:42.885Z,29.92
2023-04-18T05:54:13.727Z,33.28
2023-04-18T05:56:44.805Z,28.73
2023-04-18T05:59:15.594Z,28.10
2023-04-18T06:01:49.527Z,30.92
2023-04-18T06:04:20.484Z,24.63
2023-04-18T06:06:51.213Z,26.90
2023-04-18T06:09:21.504Z,29.52
2023-04-18T06:11:51.881Z,36.20
2023-04-18T06:14:22.120Z,28.17
2023-04-18T06:16:55.305Z,28.67
2023-04-18T06:19:25.595Z,32.45
2023-04-18T06:21:55.981Z,35.13
2023-04-18T06:24:26.266Z,26.58
2023-04-18T06:26:57.716Z,32.80
2023-04-18T06:29:30.547Z,28.73
2023-04-18T06:32:03.597Z,31.67
2023-04-18T06:34:33.900Z,36.85
2023-04-18T06:37:05.004Z,38.33
2023-04-18T06:39:35.450Z,37.97
2023-04-18T06:42:05.777Z,33.83
2023-04-18T06:47:49.850Z,37.25
2023-04-18T06:50:20.672Z,32.25
2023-04-18T06:52:50.984Z,37.63
2023-04-18T06:55:23.536Z,37.28
2023-04-18T06:57:53.923Z,37.22
2023-04-18T07:00:24.600Z,36.90
2023-04-18T07:02:57.548Z,36.50
2023-04-18T07:05:27.888Z,36.90
2023-04-18T07:07:58.176Z,31.63
2023-04-18T07:10:28.502Z,31.05
2023-04-18T07:12:58.847Z,32.63
2023-04-18T07:15:29.097Z,39.60
2023-04-18T07:18:02.092Z,37.50
2023-04-18T07:20:32.430Z,39.20
2023-04-18T07:23:02.934Z,36.63
2023-04-18T07:25:33.239Z,35.45
2023-04-18T07:28:03.633Z,36.47
2023-04-18T07:30:33.949Z,34.15
2023-04-18T07:33:07.053Z,30.02
2023-04-18T07:35:38.291Z,37.13
2023-04-18T07:38:08.660Z,36.00
2023-04-18T07:40:38.939Z,28.40
2023-04-18T07:43:09.300Z,36.78
2023-04-18T07:45:39.688Z,33.28
2023-04-18T07:48:12.742Z,37.78
2023-04-18T07:50:43.317Z,35.17
2023-04-18T07:53:13.628Z,27.65
2023-04-18T07:55:44.069Z,25.25
2023-04-18T07:58:14.829Z,33.83
2023-04-18T08:00:45.549Z,28.40
2023-04-18T08:03:18.731Z,35.03
2023-04-18T08:05:50.267Z,31.05
2023-04-18T08:08:21.023Z,34.88
2023-04-18T08:10:51.597Z,34.58
2023-04-18T08:13:24.248Z,33.90
2023-04-18T08:15:56.260Z,30.85
2023-04-18T08:18:29.139Z,30.80
2023-04-18T08:20:59.466Z,29.92
2023-04-18T08:23:29.827Z,30.65
2023-04-18T08:26:00.164Z,33.80
2023-04-18T08:28:30.591Z,32.55
2023-04-18T08:31:00.944Z,31.30
2023-04-18T08:33:33.912Z,28.63
2023-04-18T08:36:04.249Z,25.75
2023-04-18T08:38:34.519Z,32.58
2023-04-18T08:41:04.924Z,33.75
2023-04-18T08:43:35.316Z,28.33
2023-04-18T08:46:05.822Z,31.27
2023-04-18T08:48:38.861Z,27.92
2023-04-18T08:51:09.484Z,26.73
2023-04-18T08:53:39.870Z,27.20
2023-04-18T08:56:10.882Z,31.88
2023-04-18T08:58:41.314Z,32.25
2023-04-18T09:01:11.833Z,31.27
2023-04-18T09:03:45.898Z,31.58
2023-04-18T09:06:20.456Z,26.13
2023-04-18T09:08:59.634Z,28.85
2023-04-18T09:11:31.944Z,29.30
2023-04-18T09:14:02.715Z,27.48
2023-04-18T09:16:50.666Z,24.80
2023-04-18T09:19:24.031Z,26.92
2023-04-18T09:22:02.086Z,29.15
2023-04-18T09:24:34.488Z,26.77
2023-04-18T09:27:04.887Z,29.17
2023-04-18T09:29:49.566Z,26.05
2023-04-18T09:32:25.655Z,28.02
2023-04-18T09:35:04.087Z,26.37
2023-04-18T09:37:35.138Z,21.52
2023-04-18T09:40:20.001Z,26.38
2023-04-18T09:42:50.960Z,27.27
2023-04-18T09:45:21.306Z,27.38
2023-04-18T09:47:51.885Z,27.98
2023-04-18T09:50:24.972Z,22.02
2023-04-18T09:52:56.305Z,20.85
2023-04-18T09:55:26.913Z,23.75
2023-04-18T09:57:57.921Z,24.70
2023-04-18T10:00:32.887Z,22.08
2023-04-18T10:03:10.053Z,24.58
2023-04-18T10:05:44.503Z,24.58
2023-04-18T10:08:16.446Z,24.38
2023-04-18T10:10:47.021Z,22.83
2023-04-18T10:13:17.578Z,21.75
2023-04-18T10:15:51.688Z,21.75
2023-04-18T10:21:04.451Z,26.20
2023-04-18T10:23:39.725Z,25.33
2023-04-18T10:26:11.093Z,22.05
2023-04-18T10:28:54.769Z,25.20
2023-04-18T10:31:26.174Z,24.30
2023-04-18T10:36:37.250Z,24.75
2023-04-18T10:39:26.216Z,25.30
2023-04-18T10:41:56.506Z,26.15
2023-04-18T10:44:27.777Z,21.10
2023-04-18T10:47:33.926Z,19.83
2023-04-18T10:50:06.891Z,22.85
2023-04-18T10:52:40.419Z,21.80
2023-04-18T10:55:19.518Z,22.95
2023-04-18T10:57:51.711Z,24.40
2023-04-18T11:00:23.344Z,26.17
2023-04-18T11:03:00.470Z,24.55
2023-04-18T11:05:32.323Z,19.95
2023-04-18T11:08:05.312Z,23.02
2023-04-18T11:10:35.680Z,21.40
2023-04-18T11:13:08.956Z,25.38
2023-04-18T11:15:40.128Z,21.13
2023-04-18T11:18:12.708Z,20.70
2023-04-18T11:20:49.419Z,18.83
2023-04-18T11:23:25.212Z,24.23
2023-04-18T11:25:58.459Z,23.40
2023-04-18T11:28:29.622Z,24.48
2023-04-18T11:31:02.985Z,26.05
2023-04-18T11:33:33.575Z,19.83
2023-04-18T11:36:03.933Z,24.02
2023-04-18T11:38:36.878Z,22.20
2023-04-18T11:41:07.537Z,20.45
2023-04-18T11:43:37.887Z,21.00
2023-04-18T11:46:08.529Z,19.02
2023-04-18T11:48:38.925Z,18.70
2023-04-18T11:51:09.875Z,21.05
2023-04-18T11:53:42.844Z,21.83
2023-04-18T11:56:16.855Z,17.55
2023-04-18T11:58:47.445Z,19.80
2023-04-18T12:01:21.935Z,20.67
2023-04-18T12:04:05.851Z,22.73
2023-04-18T12:06:51.530Z,23.80
2023-04-18T12:09:26.338Z,21.77
2023-04-18T12:12:03.472Z,20.88
2023-04-18T12:14:33.838Z,24.55
2023-04-18T12:17:06.673Z,17.33
2023-04-18T12:19:37.421Z,22.25
2023-04-18T12:22:09.599Z,20.88
2023-04-18T12:24:42.625Z,23.98
2023-04-18T12:27:12.984Z,23.80
2023-04-18T12:29:43.375Z,22.23
2023-04-18T12:32:13.699Z,21.98
2023-04-18T12:34:44.004Z,18.15
2023-04-18T12:37:14.339Z,17.15
2023-04-18T12:39:47.322Z,17.08
2023-04-18T12:42:17.676Z,20.30
2023-04-18T12:44:48.113Z,20.92
2023-04-18T12:47:18.631Z,19.17
2023-04-18T12:49:48.909Z,20.30
2023-04-18T12:52:19.230Z,16.83
2023-04-18T12:54:52.342Z,17.17
2023-04-18T12:57:22.756Z,19.77
2023-04-18T12:59:53.121Z,18.00
2023-04-18T13:02:23.579Z,20.20
2023-04-18T13:04:54.717Z,19.50
2023-04-18T13:07:25.366Z,18.35
2023-04-18T13:09:58.318Z,16.88
2023-04-18T13:12:29.659Z,18.15
2023-04-18T13:15:00.170Z,17.55
2023-04-18T13:17:30.922Z,19.58
2023-04-18T13:20:01.792Z,14.82
2023-04-18T13:22:32.108Z,19.73
2023-04-18T13:25:05.091Z,19.73
2023-04-18T13:27:35.490Z,16.42
2023-04-18T13:30:06.155Z,16.40
2023-04-18T13:32:36.774Z,19.45
2023-04-18T13:35:09.041Z,18.35
2023-04-18T13:37:39.396Z,17.13
2023-04-18T13:40:13.067Z,18.35
2023-04-18T13:42:43.379Z,18.15
2023-04-18T13:45:14.565Z,18.30
2023-04-18T13:47:44.910Z,17.45
2023-04-18T13:50:15.236Z,19.13
2023-04-18T13:52:46.461Z,20.15
2023-04-18T13:55:20.008Z,20.55
2023-04-18T13:57:50.366Z,19.50
2023-04-18T14:00:21.746Z,15.43
2023-04-18T14:02:52.606Z,17.83
2023-04-18T14:05:23.055Z,19.55
2023-04-18T14:07:53.379Z,16.67
2023-04-18T14:10:26.598Z,17.73
2023-04-18T14:12:56.937Z,17.88
2023-04-18T14:15:27.316Z,18.10
2023-04-18T14:17:57.710Z,17.77
2023-04-18T14:20:34.403Z,15.10
2023-04-18T14:23:04.831Z,15.75
2023-04-18T14:25:37.866Z,15.90
2023-04-18T14:28:09.873Z,13.52
2023-04-18T14:30:40.733Z,17.13
2023-04-18T14:33:11.960Z,17.95
2023-04-18T14:35:42.199Z,16.58
2023-04-18T14:38:12.531Z,17.52
2023-04-18T14:40:45.452Z,15.85
2023-04-18T14:43:16.197Z,13.45
2023-04-18T14:45:46.565Z,15.50
2023-04-18T14:48:16.907Z,18.15
2023-04-18T14:50:47.198Z,17.13
2023-04-18T14:53:17.571Z,13.48
2023-04-18T14:55:51.008Z,19.98
2023-04-18T14:58:21.317Z,14.73
2023-04-18T15:00:52.203Z,17.63
2023-04-18T15:03:22.808Z,13.93
2023-04-18T15:05:53.462Z,14.20
2023-04-18T15:08:23.782Z,17.90
2023-04-18T15:10:56.819Z,13.25
2023-04-18T15:13:27.134Z,17.23
2023-04-18T15:15:58.322Z,15.85
2023-04-18T15:18:29.014Z,13.38
2023-04-18T15:21:00.311Z,15.98
2023-04-18T15:23:31.040Z,17.85
2023-04-18T15:26:04.202Z,16.65
2023-04-18T15:28:34.763Z,14.55
2023-04-18T15:31:05.106Z,15.38
2023-04-18T15:33:35.402Z,14.10
2023-04-18T15:36:05.704Z,13.15
2023-04-18T15:38:36.099Z,15.20
2023-04-18T15:41:09.156Z,16.08
2023-04-18T15:43:41.932Z,14.75
2023-04-18T15:46:12.767Z,12.00
2023-04-18T15:48:43.169Z,16.55
2023-04-18T15:51:13.544Z,14.18
2023-04-18T15:53:43.897Z,13.02
2023-04-18T15:56:17.127Z,16.67
2023-04-18T15:58:47.463Z,12.27
2023-04-18T16:01:19.108Z,10.40
2023-04-18T16:03:49.643Z,10.60
2023-04-18T16:06:23.505Z,12.82
2023-04-18T16:08:53.900Z,12.00
2023-04-18T16:11:29.131Z,13.55
2023-04-18T16:13:59.400Z,10.45
2023-04-18T16:16:29.937Z,14.48
2023-04-18T16:19:00.389Z,13.45
2023-04-18T16:21:31.104Z,13.82
2023-04-18T16:24:01.534Z,14.07
2023-04-18T16:26:34.486Z,13.02
2023-04-18T16:29:04.745Z,11.02
2023-04-18T16:31:35.964Z,11.27
2023-04-18T16:34:06.275Z,10.48
2023-04-18T16:36:37.256Z,9.90
2023-04-18T16:39:07.707Z,10.80
2023-04-18T16:41:40.642Z,11.90
2023-04-18T16:44:10.968Z,10.35
2023-04-18T16:46:41.322Z,10.20
2023-04-18T16:49:11.718Z,13.43
2023-04-18T16:51:42.292Z,13.20
2023-04-18T16:54:13.240Z,9.07
2023-04-18T16:56:47.770Z,12.93
2023-04-18T16:59:18.766Z,12.18
2023-04-18T17:01:49.694Z,13.13
2023-04-18T17:04:20.598Z,9.77
2023-04-18T17:06:52.256Z,10.27
2023-04-18T17:09:23.161Z,10.38
2023-04-18T17:11:58.214Z,13.52
2023-04-18T17:14:29.081Z,10.18
2023-04-18T17:17:00.063Z,11.30
2023-04-18T17:19:31.168Z,12.55
2023-04-18T17:22:02.234Z,8.52
2023-04-18T17:24:33.083Z,8.23
2023-04-18T17:27:07.210Z,9.68
2023-04-18T17:29:38.640Z,9.63
2023-04-18T17:32:09.888Z,11.35
2023-04-18T17:34:40.967Z,8.98
2023-04-18T17:37:11.976Z,8.13
2023-04-18T17:39:42.782Z,9.02
2023-04-18T17:42:16.237Z,10.57
2023-04-18T17:44:46.997Z,9.93
2023-04-18T17:47:17.777Z,9.50
2023-04-18T17:49:48.524Z,7.22
2023-04-18T17:52:19.921Z,10.40
2023-04-18T17:54:50.674Z,9.63
2023-04-18T17:57:26.295Z,9.65
2023-04-18T17:59:57.240Z,10.02
2023-04-18T18:02:28.675Z,13.80
2023-04-18T18:04:59.536Z,10.70
2023-04-18T18:07:31.350Z,9.32
2023-04-18T18:10:02.668Z,13.60
2023-04-18T18:12:36.582Z,8.98
2023-04-18T18:15:08.407Z,12.88
2023-04-18T18:17:39.202Z,12.05
2023-04-18T18:20:12.821Z,12.32
2023-04-18T18:22:43.622Z,8.70
2023-04-18T18:25:14.589Z,11.50
2023-04-18T18:27:48.212Z,7.30
2023-04-18T18:30:19.332Z,13.68
2023-04-18T18:32:50.253Z,8.85
2023-04-18T18:35:21.299Z,8.63
2023-04-18T18:37:52.204Z,10.60
2023-04-18T18:40:23.260Z,14.10
2023-04-18T18:42:57.126Z,15.82
2023-04-18T18:45:28.057Z,17.52
2023-04-18T18:47:58.978Z,15.18
2023-04-18T18:50:29.872Z,17.15
2023-04-18T18:53:02.075Z,15.98
2023-04-18T18:55:34.152Z,17.58
2023-04-18T18:58:08.345Z,19.83
2023-04-18T19:00:39.263Z,18.92
2023-04-18T19:03:10.581Z,19.90
2023-04-18T19:05:41.553Z,20.08
2023-04-18T19:08:12.420Z,22.17
2023-04-18T19:10:43.979Z,23.55
2023-04-18T19:13:17.635Z,23.25
2023-04-18T19:15:48.497Z,22.92
2023-04-18T19:18:20.294Z,24.52
2023-04-18T19:20:52.221Z,24.48
2023-04-18T19:23:25.340Z,24.83
2023-04-18T19:25:56.508Z,24.20
2023-04-18T19:28:29.909Z,24.02
2023-04-18T19:31:00.740Z,23.75
2023-04-18T19:33:31.681Z,25.42
2023-04-18T19:36:02.688Z,26.27
2023-04-18T19:38:34.854Z,27.00
2023-04-18T19:41:05.736Z,21.77
2023-04-18T19:43:41.022Z,23.90
2023-04-18T19:46:11.895Z,24.10
2023-04-18T19:48:42.731Z,20.30
2023-04-18T19:51:13.764Z,24.45
2023-04-18T19:53:44.620Z,22.33
2023-04-18T19:56:15.722Z,24.25
2023-04-18T19:58:49.441Z,22.95
2023-04-18T20:01:21.858Z,19.77
2023-04-18T20:03:54.573Z,23.45
2023-04-18T20:06:26.913Z,24.88
2023-04-18T20:08:57.859Z,15.90
2023-04-18T20:11:28.727Z,20.10
2023-04-18T20:14:02.170Z,18.00
2023-04-18T20:16:33.059Z,13.80
2023-04-18T20:19:05.964Z,19.65
2023-04-18T20:21:36.889Z,23.58
2023-04-18T20:24:09.900Z,23.73
2023-04-18T20:26:40.832Z,23.45
2023-04-18T20:29:14.541Z,18.73
2023-04-18T20:31:45.581Z,22.90
2023-04-18T20:34:16.419Z,23.15
2023-04-18T20:36:52.210Z,19.70
2023-04-18T20:39:23.283Z,19.75
2023-04-18T20:41:57.963Z,22.45
2023-04-18T20:44:31.505Z,22.30
2023-04-18T20:47:02.614Z,23.58
2023-04-18T20:49:34.333Z,18.98
2023-04-18T20:52:05.472Z,20.77
2023-04-18T20:54:36.401Z,21.50
2023-04-18T20:57:07.287Z,21.83
2023-04-18T20:59:40.815Z,19.02
2023-04-18T21:02:12.053Z,21.30
2023-04-18T21:04:43.145Z,20.92
2023-04-18T21:07:14.165Z,21.48
2023-04-18T21:09:45.217Z,11.88
2023-04-18T21:12:16.115Z,16.27
2023-04-18T21:14:49.557Z,19.75
2023-04-18T21:17:20.420Z,16.60
2023-04-18T21:19:52.328Z,18.67
2023-04-18T21:22:23.082Z,18.38
2023-04-18T21:24:53.940Z,12.65
2023-04-18T21:27:24.713Z,19.10
2023-04-18T21:29:58.101Z,13.57
2023-04-18T21:32:28.972Z,20.90
2023-04-18T21:35:00.944Z,19.42
2023-04-18T21:37:31.884Z,19.08
2023-04-18T21:40:04.525Z,13.27
2023-04-18T21:42:35.731Z,15.30
2023-04-18T21:45:10.412Z,17.17
2023-04-18T21:47:41.288Z,18.75
2023-04-18T21:50:13.696Z,19.17
2023-04-18T21:52:44.592Z,16.33
2023-04-18T21:55:15.422Z,10.32
2023-04-18T21:57:46.305Z,18.33
2023-04-18T22:00:20.770Z,16.40
2023-04-18T22:02:51.661Z,13.48
2023-04-18T22:05:23.180Z,15.90
2023-04-18T22:07:57.890Z,17.83
2023-04-18T22:10:29.281Z,15.55
2023-04-18T22:13:00.495Z,18.33
2023-04-18T22:15:33.910Z,14.27
2023-04-18T22:18:05.520Z,13.48
2023-04-18T22:20:36.580Z,13.07
2023-04-18T22:23:07.502Z,16.90
2023-04-18T22:25:38.681Z,17.40
2023-04-18T22:28:09.609Z,18.23
2023-04-18T22:30:43.726Z,17.17
2023-04-18T22:33:14.504Z,17.95
2023-04-18T22:35:45.303Z,16.67
2023-04-18T22:38:16.059Z,17.42
2023-04-18T22:40:46.850Z,11.98
2023-04-18T22:43:23.015Z,16.58
2023-04-18T22:45:56.653Z,15.95
2023-04-18T22:48:27.468Z,16.65
2023-04-18T22:50:58.320Z,12.25
2023-04-18T22:53:29.063Z,12.75
2023-04-18T22:55:59.928Z,13.50
2023-04-18T22:58:31.647Z,14.13
2023-04-18T23:01:05.899Z,17.95
2023-04-18T23:03:36.912Z,13.32
2023-04-18T23:06:09.718Z,14.45
2023-04-18T23:08:40.516Z,14.35
2023-04-18T23:11:11.507Z,16.85
2023-04-18T23:13:42.257Z,15.65
2023-04-18T23:16:15.733Z,11.50
2023-04-18T23:18:46.592Z,17.08
2023-04-18T23:21:17.773Z,15.50
2023-04-18T23:23:48.590Z,17.05
2023-04-18T23:26:19.795Z,17.80
2023-04-18T23:28:51.220Z,14.52
2023-04-18T23:31:24.880Z,18.55
2023-04-18T23:33:55.736Z,18.63
2023-04-18T23:36:26.592Z,16.15
2023-04-18T23:38:57.497Z,18.33
2023-04-18T23:41:28.224Z,18.40
2023-04-18T23:43:59.041Z,19.63
2023-04-18T23:46:33.792Z,18.25
2023-04-18T23:49:06.610Z,18.25
2023-04-18T23:51:37.482Z,18.88
2023-04-18T23:54:08.589Z,18.10
2023-04-18T23:56:39.416Z,19.42
2023-04-18T23:59:10.673Z,19.58
